Time;durP1;ratioP1;P1;durP2;ratioP2;P2;SDS_P1;SDS_P2;PMS_P1;PMS_P2;Temp;Humidity;BMP_temperature;BMP_pressure;BME280_temperature;BME280_humidity;BME280_pressure;Samples;Min_cycle;Max_cycle;Signal;HPM_P1;HPM_P2
2023/04/03 00:02:20;;;;;;;2.50;1.02;;;;;;;;;;5059145;28;20128;-81
2023/04/03 00:04:46;;;;;;;3.17;1.15;;;;;;;;;;5060696;28;20045;-81
2023/04/03 00:07:12;;;;;;;3.63;1.10;;;;;;;;;;5067870;28;20427;-81
2023/04/03 00:09:38;;;;;;;4.95;1.27;;;;;;;;;;5070966;28;20052;-81
2023/04/03 00:12:04;;;;;;;3.60;1.00;;;;;;;;;;5061619;28;20044;-81
2023/04/03 00:14:30;;;;;;;4.20;1.02;;;;;;;;;;5034219;28;20039;-81
2023/04/03 00:16:57;;;;;;;3.65;1.27;;;;;;;;;;5051636;28;20090;-81
2023/04/03 00:19:23;;;;;;;4.20;1.10;;;;;;;;;;5051929;28;20037;-81
2023/04/03 00:21:49;;;;;;;2.00;1.00;;;;;;;;;;5050682;28;20115;-81
2023/04/03 00:24:15;;;;;;;3.67;1.10;;;;;;;;;;5050404;28;20033;-81
2023/04/03 00:26:41;;;;;;;4.03;1.33;;;;;;;;;;5050796;28;20045;-81
2023/04/03 00:29:07;;;;;;;4.38;1.10;;;;;;;;;;5051730;28;20033;-81
2023/04/03 00:31:33;;;;;;;2.58;1.17;;;;;;;;;;5050826;28;20052;-81
2023/04/03 00:33:59;;;;;;;3.75;1.10;;;;;;;;;;5050587;28;20137;-81
2023/04/03 00:36:26;;;;;;;2.70;1.00;;;;;;;;;;5051478;28;20367;-81
2023/04/03 00:38:52;;;;;;;3.13;1.20;;;;;;;;;;5056561;28;20508;-81
2023/04/03 00:41:18;;;;;;;3.75;1.17;;;;;;;;;;5053016;28;20036;-81
2023/04/03 00:43:44;;;;;;;2.75;0.98;;;;;;;;;;5054474;28;20127;-81
2023/04/03 00:46:10;;;;;;;1.88;0.90;;;;;;;;;;5053975;28;20045;-81
2023/04/03 00:48:40;;;;;;;2.35;1.00;;;;;;;;;;5055479;28;20417;-81
2023/04/03 00:51:07;;;;;;;4.55;1.10;;;;;;;;;;5066686;28;20045;-81
2023/04/03 00:53:36;;;;;;;2.78;1.00;;;;;;;;;;5054938;28;20100;-81
2023/04/03 00:56:06;;;;;;;3.45;1.15;;;;;;;;;;5054035;28;20061;-81
2023/04/03 00:58:34;;;;;;;2.50;0.85;;;;;;;;;;5053936;28;20052;-81
2023/04/03 01:01:04;;;;;;;2.58;1.00;;;;;;;;;;5050858;28;20049;-81
2023/04/03 01:03:31;;;;;;;3.35;1.02;;;;;;;;;;5053761;28;20447;-81
2023/04/03 01:05:57;;;;;;;1.77;0.98;;;;;;;;;;5053151;28;20091;-81
2023/04/03 01:08:23;;;;;;;3.15;1.35;;;;;;;;;;5054005;28;20079;-81
2023/04/03 01:10:50;;;;;;;2.80;0.85;;;;;;;;;;5055148;28;20037;-81
2023/04/03 01:13:42;;;;;;;4.05;1.00;;;;;;;;;;5052898;28;20328;-81
2023/04/03 01:16:09;;;;;;;3.70;1.00;;;;;;;;;;5086005;28;20057;-81
2023/04/03 01:18:36;;;;;;;4.25;1.10;;;;;;;;;;5054397;28;20115;-81
2023/04/03 01:21:26;;;;;;;2.47;0.88;;;;;;;;;;5052643;28;20052;-81
2023/04/03 01:23:59;;;;;;;2.95;0.90;;;;;;;;;;5077373;28;20049;-81
2023/04/03 01:26:25;;;;;;;2.17;0.90;;;;;;;;;;5053216;28;20041;-81
2023/04/03 01:28:53;;;;;;;2.22;0.93;;;;;;;;;;5036349;28;20045;-81
2023/04/03 01:31:22;;;;;;;6.55;1.48;;;;;;;;;;5053522;28;20041;-81
2023/04/03 01:33:49;;;;;;;2.28;1.08;;;;;;;;;;5053373;28;20456;-81
2023/04/03 01:36:33;;;;;;;3.08;0.98;;;;;;;;;;5052765;28;20059;-81
2023/04/03 01:38:59;;;;;;;2.35;1.08;;;;;;;;;;5053444;28;20440;-81
2023/04/03 01:41:26;;;;;;;4.60;1.10;;;;;;;;;;5036347;28;20493;-81
2023/04/03 01:43:52;;;;;;;4.57;1.10;;;;;;;;;;5052765;28;20064;-81
2023/04/03 01:46:19;;;;;;;3.03;1.10;;;;;;;;;;5035681;28;20563;-81
2023/04/03 01:48:45;;;;;;;2.63;1.00;;;;;;;;;;5052144;28;20037;-81
2023/04/03 01:51:11;;;;;;;3.90;1.15;;;;;;;;;;5052611;28;20512;-81
2023/04/03 01:53:37;;;;;;;3.40;1.15;;;;;;;;;;5035590;28;20041;-81
2023/04/03 01:56:04;;;;;;;3.47;1.20;;;;;;;;;;5052058;28;20075;-81
2023/04/03 01:58:30;;;;;;;5.40;1.40;;;;;;;;;;5052337;28;20507;-81
2023/04/03 02:00:56;;;;;;;2.85;1.00;;;;;;;;;;5051347;28;20061;-81
2023/04/03 02:03:23;;;;;;;3.58;1.30;;;;;;;;;;5051103;28;20056;-81
2023/04/03 02:05:49;;;;;;;5.95;1.70;;;;;;;;;;5052081;28;20041;-81
2023/04/03 02:08:17;;;;;;;3.10;1.20;;;;;;;;;;5084734;28;20140;-81
2023/04/03 02:10:44;;;;;;;5.38;1.30;;;;;;;;;;5051905;28;20037;-81
2023/04/03 02:13:11;;;;;;;4.30;1.45;;;;;;;;;;5051664;28;20045;-81
2023/04/03 02:15:40;;;;;;;3.25;1.15;;;;;;;;;;5052034;28;20053;-81
2023/04/03 02:18:07;;;;;;;4.47;1.35;;;;;;;;;;5051732;28;20052;-81
2023/04/03 02:20:33;;;;;;;4.15;1.15;;;;;;;;;;5053144;28;20047;-81
2023/04/03 02:22:59;;;;;;;2.65;1.10;;;;;;;;;;5052678;28;20071;-81
2023/04/03 02:25:25;;;;;;;3.20;1.10;;;;;;;;;;5051626;28;20043;-81
2023/04/03 02:27:52;;;;;;;3.50;1.00;;;;;;;;;;5085097;28;20453;-81
2023/04/03 02:30:18;;;;;;;3.47;1.00;;;;;;;;;;5051155;28;20045;-81
2023/04/03 02:32:44;;;;;;;3.47;1.48;;;;;;;;;;5052843;28;20057;-81
2023/04/03 02:35:10;;;;;;;3.72;1.38;;;;;;;;;;5051542;28;20559;-81
2023/04/03 02:37:37;;;;;;;5.07;1.30;;;;;;;;;;5051269;28;20052;-81
2023/04/03 02:40:03;;;;;;;5.65;1.27;;;;;;;;;;5052623;28;20414;-81
2023/04/03 02:42:29;;;;;;;5.57;1.45;;;;;;;;;;5051327;28;20529;-81
2023/04/03 02:44:56;;;;;;;4.70;1.45;;;;;;;;;;5052754;28;20069;-81
2023/04/03 02:47:22;;;;;;;4.30;1.50;;;;;;;;;;5052210;28;20451;-81
2023/04/03 02:49:48;;;;;;;4.57;1.55;;;;;;;;;;5052534;28;20077;-81
2023/04/03 02:52:14;;;;;;;4.68;1.65;;;;;;;;;;5052193;28;20504;-81
2023/04/03 02:54:40;;;;;;;4.43;1.40;;;;;;;;;;5051422;28;20562;-81
2023/04/03 02:57:08;;;;;;;7.05;1.60;;;;;;;;;;5051349;28;20037;-81
2023/04/03 02:59:35;;;;;;;4.50;1.50;;;;;;;;;;5050720;28;20040;-81
2023/04/03 03:02:01;;;;;;;4.25;1.50;;;;;;;;;;5038342;28;20048;-81
2023/04/03 03:04:27;;;;;;;7.63;1.50;;;;;;;;;;5051178;28;20063;-81
2023/04/03 03:06:53;;;;;;;3.95;1.70;;;;;;;;;;5051457;28;20106;-81
2023/04/03 03:09:19;;;;;;;4.55;1.70;;;;;;;;;;5051943;28;20029;-81
2023/04/03 03:11:45;;;;;;;4.32;1.50;;;;;;;;;;5051445;28;20551;-81
2023/04/03 03:14:11;;;;;;;4.50;1.80;;;;;;;;;;5050853;28;20492;-81
2023/04/03 03:16:37;;;;;;;6.38;1.70;;;;;;;;;;5052772;28;20076;-81
2023/04/03 03:19:04;;;;;;;5.43;1.20;;;;;;;;;;5050701;28;20052;-81
2023/04/03 03:21:30;;;;;;;5.18;1.50;;;;;;;;;;5052113;28;20052;-81
2023/04/03 03:23:56;;;;;;;6.45;1.60;;;;;;;;;;5052029;28;20037;-81
2023/04/03 03:26:23;;;;;;;3.92;1.35;;;;;;;;;;5052390;28;20037;-81
2023/04/03 03:28:49;;;;;;;4.88;1.63;;;;;;;;;;5050886;28;20040;-81
2023/04/03 03:31:15;;;;;;;4.63;1.45;;;;;;;;;;5050837;28;20533;-81
2023/04/03 03:33:41;;;;;;;4.25;1.40;;;;;;;;;;5051508;28;20494;-81
2023/04/03 03:36:08;;;;;;;4.13;1.42;;;;;;;;;;5068219;28;20037;-81
2023/04/03 03:38:34;;;;;;;6.25;1.90;;;;;;;;;;5052280;28;20559;-81
2023/04/03 03:41:00;;;;;;;4.82;1.83;;;;;;;;;;5051094;28;20098;-81
2023/04/03 03:43:26;;;;;;;7.30;2.13;;;;;;;;;;5052777;28;20058;-81
2023/04/03 03:45:52;;;;;;;4.30;1.65;;;;;;;;;;5052826;28;20048;-81
2023/04/03 03:48:19;;;;;;;4.78;1.90;;;;;;;;;;5051752;28;20087;-81
2023/04/03 03:50:45;;;;;;;4.68;1.70;;;;;;;;;;5051497;28;20045;-81
2023/04/03 03:53:11;;;;;;;6.07;1.60;;;;;;;;;;5051817;28;20508;-81
2023/04/03 03:55:37;;;;;;;5.88;1.63;;;;;;;;;;5034088;28;20045;-81
2023/04/03 03:58:03;;;;;;;5.95;1.58;;;;;;;;;;5051275;28;20056;-81
2023/04/03 04:00:30;;;;;;;4.35;1.60;;;;;;;;;;5049516;28;20508;-81
2023/04/03 04:02:56;;;;;;;5.63;1.70;;;;;;;;;;5049300;28;20508;-81
2023/04/03 04:05:22;;;;;;;5.13;1.63;;;;;;;;;;5050151;28;20049;-81
2023/04/03 04:07:49;;;;;;;9.45;1.67;;;;;;;;;;5050363;28;20414;-81
2023/04/03 04:10:15;;;;;;;6.13;1.50;;;;;;;;;;5050488;28;20048;-81
2023/04/03 04:12:41;;;;;;;7.57;1.75;;;;;;;;;;5052611;28;20072;-81
2023/04/03 04:15:07;;;;;;;4.57;1.70;;;;;;;;;;5055787;28;20044;-81
2023/04/03 04:17:35;;;;;;;4.25;1.90;;;;;;;;;;5037445;28;20051;-81
2023/04/03 04:20:01;;;;;;;5.13;1.60;;;;;;;;;;5037389;28;20037;-81
2023/04/03 04:22:27;;;;;;;5.97;1.88;;;;;;;;;;5055486;28;20048;-81
2023/04/03 04:24:53;;;;;;;6.60;1.73;;;;;;;;;;5054016;28;20068;-81
2023/04/03 04:27:19;;;;;;;4.28;1.70;;;;;;;;;;5054245;28;20099;-81
2023/04/03 04:29:45;;;;;;;6.53;1.60;;;;;;;;;;5053893;28;20111;-81
2023/04/03 04:32:11;;;;;;;7.82;1.90;;;;;;;;;;5053918;28;20111;-80
2023/04/03 04:34:37;;;;;;;8.57;2.00;;;;;;;;;;5053646;28;20162;-81
2023/04/03 04:37:03;;;;;;;5.13;1.65;;;;;;;;;;5054044;28;20041;-80
2023/04/03 04:39:29;;;;;;;3.88;1.65;;;;;;;;;;5053456;28;20037;-81
2023/04/03 04:41:55;;;;;;;3.88;1.80;;;;;;;;;;5053657;28;20047;-81
2023/04/03 04:44:21;;;;;;;5.40;1.70;;;;;;;;;;5055048;28;20044;-81
2023/04/03 04:46:47;;;;;;;5.40;1.90;;;;;;;;;;5054883;28;20130;-80
2023/04/03 04:49:13;;;;;;;5.45;2.00;;;;;;;;;;5055211;28;20051;-81
2023/04/03 04:51:39;;;;;;;6.13;2.08;;;;;;;;;;5053098;28;20444;-80
2023/04/03 04:54:06;;;;;;;4.45;1.83;;;;;;;;;;5054910;28;20037;-81
2023/04/03 04:56:32;;;;;;;5.85;2.00;;;;;;;;;;5054424;28;20497;-80
2023/04/03 04:58:58;;;;;;;4.97;1.70;;;;;;;;;;5054770;28;20045;-81
2023/04/03 05:01:24;;;;;;;6.50;2.15;;;;;;;;;;5043833;28;20390;-81
2023/04/03 05:03:50;;;;;;;4.75;1.67;;;;;;;;;;5051387;28;20041;-81
2023/04/03 05:06:16;;;;;;;5.32;1.88;;;;;;;;;;5053677;28;20440;-81
2023/04/03 05:08:42;;;;;;;5.40;1.80;;;;;;;;;;5069708;28;20126;-80
2023/04/03 05:11:08;;;;;;;5.25;1.90;;;;;;;;;;5036539;28;20045;-80
2023/04/03 05:13:34;;;;;;;7.25;2.20;;;;;;;;;;5052976;28;20127;-80
2023/04/03 05:16:00;;;;;;;7.65;2.20;;;;;;;;;;5070405;28;20407;-81
2023/04/03 05:18:27;;;;;;;6.35;2.20;;;;;;;;;;5054037;28;20041;-81
2023/04/03 05:20:53;;;;;;;5.30;2.20;;;;;;;;;;5054164;28;20037;-81
2023/04/03 05:23:19;;;;;;;5.75;2.38;;;;;;;;;;5053861;28;20399;-81
2023/04/03 05:25:46;;;;;;;6.07;2.13;;;;;;;;;;5052668;28;20116;-81
2023/04/03 05:28:12;;;;;;;4.65;2.03;;;;;;;;;;5053009;28;20056;-81
2023/04/03 05:30:38;;;;;;;6.20;2.05;;;;;;;;;;5035900;28;20041;-81
2023/04/03 05:33:05;;;;;;;6.30;2.08;;;;;;;;;;5067989;28;20540;-81
2023/04/03 05:35:32;;;;;;;6.30;1.98;;;;;;;;;;5052619;28;20102;-81
2023/04/03 05:37:58;;;;;;;5.80;1.90;;;;;;;;;;5054045;28;20060;-81
2023/04/03 05:40:24;;;;;;;4.57;1.80;;;;;;;;;;5054165;28;20615;-81
2023/04/03 05:42:50;;;;;;;6.85;2.03;;;;;;;;;;5052107;28;20091;-82
2023/04/03 05:45:16;;;;;;;3.72;1.80;;;;;;;;;;5052559;28;20045;-82
2023/04/03 05:47:42;;;;;;;5.15;1.95;;;;;;;;;;5052196;28;20405;-82
2023/04/03 05:50:08;;;;;;;3.95;1.60;;;;;;;;;;5053982;28;20409;-82
2023/04/03 05:52:36;;;;;;;6.00;2.00;;;;;;;;;;5053469;28;20440;-82
2023/04/03 05:55:03;;;;;;;5.45;2.00;;;;;;;;;;5053729;28;20094;-82
2023/04/03 05:57:29;;;;;;;6.20;2.03;;;;;;;;;;5052289;28;20466;-82
2023/04/03 05:59:55;;;;;;;7.35;2.00;;;;;;;;;;5019467;28;20490;-82
2023/04/03 06:02:22;;;;;;;5.25;1.90;;;;;;;;;;5051979;28;20052;-83
2023/04/03 06:04:48;;;;;;;4.43;1.70;;;;;;;;;;5051960;28;20086;-83
2023/04/03 06:07:18;;;;;;;6.07;1.70;;;;;;;;;;5053340;28;20041;-83
2023/04/03 06:09:44;;;;;;;4.18;1.92;;;;;;;;;;5035260;28;20033;-83
2023/04/03 06:12:11;;;;;;;6.50;1.95;;;;;;;;;;5053299;28;20112;-83
2023/04/03 06:14:37;;;;;;;5.85;1.77;;;;;;;;;;5035229;28;20450;-83
2023/04/03 06:17:04;;;;;;;5.22;1.85;;;;;;;;;;5053171;28;20036;-83
2023/04/03 06:19:30;;;;;;;7.50;1.70;;;;;;;;;;5052312;28;20478;-83
2023/04/03 06:21:56;;;;;;;4.35;1.65;;;;;;;;;;5051302;28;20037;-83
2023/04/03 06:24:23;;;;;;;4.85;1.75;;;;;;;;;;5052026;28;20033;-83
2023/04/03 06:26:51;;;;;;;6.88;1.60;;;;;;;;;;5052789;28;20041;-83
2023/04/03 06:29:17;;;;;;;6.18;1.90;;;;;;;;;;5051764;28;20049;-83
2023/04/03 06:31:43;;;;;;;3.70;1.50;;;;;;;;;;5051141;28;20056;-83
2023/04/03 06:34:11;;;;;;;4.63;1.60;;;;;;;;;;5032493;28;20045;-83
2023/04/03 06:36:38;;;;;;;5.13;1.55;;;;;;;;;;5052573;28;20045;-83
2023/04/03 06:39:04;;;;;;;5.85;1.77;;;;;;;;;;5052979;28;20107;-83
2023/04/03 06:41:30;;;;;;;5.30;1.83;;;;;;;;;;5052720;28;20063;-83
2023/04/03 06:43:57;;;;;;;6.05;1.60;;;;;;;;;;5052304;28;20041;-84
2023/04/03 06:46:24;;;;;;;4.32;1.48;;;;;;;;;;5051405;28;20068;-84
2023/04/03 06:48:50;;;;;;;4.57;1.15;;;;;;;;;;5050981;28;20049;-84
2023/04/03 06:51:22;;;;;;;6.00;1.70;;;;;;;;;;5051635;28;20037;-83
2023/04/03 06:53:48;;;;;;;4.70;1.60;;;;;;;;;;5051124;28;20078;-84
2023/04/03 06:56:15;;;;;;;4.88;1.52;;;;;;;;;;5051422;28;20047;-83
2023/04/03 06:58:41;;;;;;;5.75;1.60;;;;;;;;;;5034512;28;20037;-84
2023/04/03 07:01:09;;;;;;;6.03;2.00;;;;;;;;;;5044246;28;20486;-83
2023/04/03 07:03:35;;;;;;;4.10;1.38;;;;;;;;;;5045991;28;20060;-83
2023/04/03 07:06:01;;;;;;;5.05;1.70;;;;;;;;;;5050874;28;20122;-83
2023/04/03 07:08:28;;;;;;;4.90;1.98;;;;;;;;;;5051296;28;20055;-83
2023/04/03 07:10:54;;;;;;;4.60;1.65;;;;;;;;;;5051804;28;20083;-83
2023/04/03 07:13:20;;;;;;;4.55;1.70;;;;;;;;;;5051020;28;20037;-83
2023/04/03 07:15:46;;;;;;;4.32;1.50;;;;;;;;;;5067391;28;20032;-83
2023/04/03 07:18:13;;;;;;;6.32;1.75;;;;;;;;;;5051295;28;20041;-83
2023/04/03 07:20:39;;;;;;;4.93;1.67;;;;;;;;;;5051074;28;20133;-83
2023/04/03 07:23:05;;;;;;;3.83;1.60;;;;;;;;;;5050639;28;20493;-83
2023/04/03 07:25:31;;;;;;;4.28;1.70;;;;;;;;;;5052221;28;20072;-83
2023/04/03 07:27:58;;;;;;;5.05;1.48;;;;;;;;;;5067127;28;20052;-84
2023/04/03 07:30:25;;;;;;;6.90;1.60;;;;;;;;;;5051169;28;20532;-84
2023/04/03 07:32:51;;;;;;;3.75;1.60;;;;;;;;;;5033499;28;20041;-83
2023/04/03 07:35:17;;;;;;;6.18;1.73;;;;;;;;;;5050946;28;20041;-84
2023/04/03 07:37:43;;;;;;;4.60;1.60;;;;;;;;;;5051764;28;20398;-84
2023/04/03 07:40:10;;;;;;;5.18;1.38;;;;;;;;;;5058578;28;20045;-84
2023/04/03 07:42:36;;;;;;;2.80;1.33;;;;;;;;;;5059450;28;20067;-84
2023/04/03 07:45:03;;;;;;;5.43;1.45;;;;;;;;;;5050228;28;20111;-84
2023/04/03 07:47:30;;;;;;;3.70;1.25;;;;;;;;;;5055704;28;20040;-83
2023/04/03 07:49:57;;;;;;;4.45;1.27;;;;;;;;;;5041646;28;20033;-84
2023/04/03 07:52:23;;;;;;;5.05;1.45;;;;;;;;;;5054030;28;20033;-84
2023/04/03 07:54:49;;;;;;;4.35;1.60;;;;;;;;;;5055592;28;20182;-84
2023/04/03 07:57:16;;;;;;;2.58;1.20;;;;;;;;;;5055881;28;20051;-84
2023/04/03 07:59:42;;;;;;;3.55;1.30;;;;;;;;;;5055787;28;20045;-84
2023/04/03 08:02:12;;;;;;;4.30;1.48;;;;;;;;;;5054061;28;20058;-84
2023/04/03 08:04:38;;;;;;;6.32;1.88;;;;;;;;;;5056184;28;20067;-83
2023/04/03 08:07:04;;;;;;;5.30;1.58;;;;;;;;;;5055259;28;20041;-84
2023/04/03 08:09:31;;;;;;;3.20;1.00;;;;;;;;;;5062939;28;20038;-84
2023/04/03 08:11:57;;;;;;;3.72;1.20;;;;;;;;;;5084091;28;20044;-84
2023/04/03 08:14:23;;;;;;;3.30;1.10;;;;;;;;;;5056646;28;20402;-84
2023/04/03 08:16:49;;;;;;;4.20;1.20;;;;;;;;;;5046025;28;20441;-84
2023/04/03 08:19:17;;;;;;;3.50;1.08;;;;;;;;;;5054367;28;20094;-84
2023/04/03 08:21:44;;;;;;;3.97;1.30;;;;;;;;;;5054557;28;20497;-84
2023/04/03 08:24:10;;;;;;;5.20;1.38;;;;;;;;;;5053612;28;20044;-84
2023/04/03 08:26:36;;;;;;;3.03;1.17;;;;;;;;;;5055539;28;20049;-84
2023/04/03 08:29:02;;;;;;;2.97;1.00;;;;;;;;;;5055017;28;20048;-84
2023/04/03 08:31:28;;;;;;;2.53;1.17;;;;;;;;;;5040981;28;20049;-84
2023/04/03 08:33:54;;;;;;;2.33;0.90;;;;;;;;;;5053605;28;20049;-84
2023/04/03 08:36:28;;;;;;;3.97;1.13;;;;;;;;;;5055416;28;20029;-83
2023/04/03 08:38:55;;;;;;;2.70;1.13;;;;;;;;;;5053728;28;20051;-84
2023/04/03 08:41:21;;;;;;;3.22;1.00;;;;;;;;;;5053929;28;20043;-83
2023/04/03 08:43:57;;;;;;;4.60;1.23;;;;;;;;;;5037354;28;20080;-83
2023/04/03 08:46:27;;;;;;;2.97;0.98;;;;;;;;;;5054956;28;20544;-84
2023/04/03 08:48:54;;;;;;;4.55;1.20;;;;;;;;;;5053194;28;20049;-84
2023/04/03 08:51:21;;;;;;;3.13;0.90;;;;;;;;;;5055156;28;20367;-84
2023/04/03 08:53:56;;;;;;;2.88;0.95;;;;;;;;;;5053835;28;20033;-84
2023/04/03 08:56:23;;;;;;;5.00;1.00;;;;;;;;;;5054278;28;20511;-84
2023/04/03 08:58:53;;;;;;;3.75;1.10;;;;;;;;;;5053832;28;20493;-84
2023/04/03 09:01:19;;;;;;;2.38;0.75;;;;;;;;;;5046062;28;20060;-84
2023/04/03 09:03:45;;;;;;;2.35;0.60;;;;;;;;;;5049404;28;20076;-85
2023/04/03 09:06:14;;;;;;;2.30;0.90;;;;;;;;;;5054432;28;20489;-84
2023/04/03 09:08:40;;;;;;;2.13;0.80;;;;;;;;;;5053439;28;20051;-85
2023/04/03 09:11:23;;;;;;;3.80;0.70;;;;;;;;;;5053434;28;20037;-83
2023/04/03 09:14:08;;;;;;;2.33;0.75;;;;;;;;;;5050278;28;20041;-84
2023/04/03 09:16:54;;;;;;;2.30;0.93;;;;;;;;;;5045036;28;20041;-84
2023/04/03 09:19:32;;;;;;;2.90;0.93;;;;;;;;;;5039758;28;20115;-84
2023/04/03 09:22:10;;;;;;;2.88;0.80;;;;;;;;;;5052922;28;20049;-84
2023/04/03 09:24:37;;;;;;;2.17;0.68;;;;;;;;;;5054495;28;20045;-84
2023/04/03 09:27:07;;;;;;;2.83;0.90;;;;;;;;;;5052766;28;20053;-84
2023/04/03 09:29:35;;;;;;;4.45;1.25;;;;;;;;;;5041069;28;20112;-84
2023/04/03 09:32:03;;;;;;;2.47;0.80;;;;;;;;;;5035941;28;20056;-84
2023/04/03 09:34:32;;;;;;;1.65;0.70;;;;;;;;;;5052807;28;20068;-84
2023/04/03 09:37:08;;;;;;;2.38;0.80;;;;;;;;;;5052763;28;20037;-84
2023/04/03 09:39:55;;;;;;;4.47;0.98;;;;;;;;;;5052966;28;20068;-84
2023/04/03 09:42:25;;;;;;;2.03;0.75;;;;;;;;;;5052966;28;20087;-84
2023/04/03 09:44:56;;;;;;;3.72;1.00;;;;;;;;;;5052909;28;20144;-83
2023/04/03 09:47:33;;;;;;;2.55;0.85;;;;;;;;;;5052648;28;20425;-84
2023/04/03 09:50:18;;;;;;;1.95;0.80;;;;;;;;;;5052535;28;20119;-84
2023/04/03 09:52:45;;;;;;;4.60;0.80;;;;;;;;;;5054093;28;20045;-84
2023/04/03 09:55:15;;;;;;;2.22;0.68;;;;;;;;;;5052175;28;20128;-84
2023/04/03 09:57:41;;;;;;;1.92;0.82;;;;;;;;;;5086244;28;20048;-84
2023/04/03 10:00:19;;;;;;;1.83;0.75;;;;;;;;;;5052228;28;20049;-84
2023/04/03 10:02:50;;;;;;;1.40;0.50;;;;;;;;;;5084786;28;20142;-83
2023/04/03 10:05:35;;;;;;;1.30;0.50;;;;;;;;;;5052333;28;20401;-84
2023/04/03 10:08:14;;;;;;;2.60;0.90;;;;;;;;;;5052256;28;20045;-84
2023/04/03 10:10:41;;;;;;;2.00;0.65;;;;;;;;;;5052692;28;20048;-84
2023/04/03 10:13:20;;;;;;;2.08;0.73;;;;;;;;;;5051834;28;20049;-83
2023/04/03 10:15:52;;;;;;;2.42;0.70;;;;;;;;;;5052450;28;20037;-84
2023/04/03 10:18:28;;;;;;;3.83;0.80;;;;;;;;;;5052883;28;20077;-83
2023/04/03 10:20:56;;;;;;;1.55;0.73;;;;;;;;;;5052614;28;20135;-83
2023/04/03 10:23:22;;;;;;;3.35;0.70;;;;;;;;;;5051780;28;20243;-84
2023/04/03 10:26:04;;;;;;;2.28;0.68;;;;;;;;;;5053262;28;20056;-83
2023/04/03 10:28:43;;;;;;;2.63;0.73;;;;;;;;;;5052067;28;20426;-84
2023/04/03 10:31:11;;;;;;;2.58;0.80;;;;;;;;;;5051483;28;20044;-83
2023/04/03 10:33:45;;;;;;;2.05;0.70;;;;;;;;;;5051800;28;20508;-84
2023/04/03 10:36:15;;;;;;;1.63;0.70;;;;;;;;;;5052995;28;20044;-84
2023/04/03 10:38:48;;;;;;;2.03;0.80;;;;;;;;;;5051999;28;20053;-84
2023/04/03 10:41:22;;;;;;;2.03;0.70;;;;;;;;;;5052967;28;20076;-84
2023/04/03 10:43:52;;;;;;;3.05;0.90;;;;;;;;;;5051801;28;20102;-83
2023/04/03 10:46:18;;;;;;;4.63;0.90;;;;;;;;;;5051522;28;20123;-83
2023/04/03 10:48:47;;;;;;;2.22;0.90;;;;;;;;;;5051438;28;20040;-83
2023/04/03 10:51:32;;;;;;;1.48;0.68;;;;;;;;;;5051483;28;20045;-84
2023/04/03 10:54:09;;;;;;;2.15;0.93;;;;;;;;;;5051352;28;20044;-84
2023/04/03 10:56:41;;;;;;;2.25;0.60;;;;;;;;;;5051900;28;20474;-83
2023/04/03 10:59:19;;;;;;;5.47;1.20;;;;;;;;;;5052711;28;20554;-84
2023/04/03 11:01:47;;;;;;;2.35;0.80;;;;;;;;;;5049249;28;20045;-84
2023/04/03 11:04:14;;;;;;;2.45;0.90;;;;;;;;;;5034192;28;20102;-83
2023/04/03 11:06:44;;;;;;;1.67;0.68;;;;;;;;;;5051532;28;20117;-83
2023/04/03 11:09:20;;;;;;;3.03;0.77;;;;;;;;;;5050825;28;20045;-83
2023/04/03 11:11:47;;;;;;;2.13;0.90;;;;;;;;;;5051929;28;20433;-83
2023/04/03 11:14:23;;;;;;;2.63;0.85;;;;;;;;;;5051088;28;20070;-83
2023/04/03 11:16:54;;;;;;;2.10;0.80;;;;;;;;;;5051396;28;20120;-83
2023/04/03 11:19:38;;;;;;;2.47;0.98;;;;;;;;;;5051384;28;20460;-83
2023/04/03 11:22:09;;;;;;;3.97;1.05;;;;;;;;;;5052644;28;20041;-83
2023/04/03 11:24:38;;;;;;;2.15;0.88;;;;;;;;;;5053986;28;20036;-83
2023/04/03 11:27:06;;;;;;;2.72;0.82;;;;;;;;;;5052885;28;20053;-83
2023/04/03 11:29:36;;;;;;;2.20;0.93;;;;;;;;;;5035970;28;20064;-83
2023/04/03 11:32:27;;;;;;;1.27;0.70;;;;;;;;;;5052890;28;20132;-83
2023/04/03 11:34:58;;;;;;;3.10;1.00;;;;;;;;;;5052536;28;20045;-83
2023/04/03 11:37:35;;;;;;;2.80;0.82;;;;;;;;;;5052853;28;20041;-82
2023/04/03 11:40:25;;;;;;;3.92;1.02;;;;;;;;;;5052751;28;20048;-83
2023/04/03 11:42:55;;;;;;;4.53;0.75;;;;;;;;;;5083189;28;20061;-83
2023/04/03 11:45:24;;;;;;;2.17;0.85;;;;;;;;;;5035308;28;20127;-83
2023/04/03 11:47:55;;;;;;;3.08;0.82;;;;;;;;;;5051670;28;20084;-82
2023/04/03 11:50:41;;;;;;;2.80;0.80;;;;;;;;;;5051868;28;20401;-82
2023/04/03 11:53:07;;;;;;;1.83;0.75;;;;;;;;;;5051909;28;20033;-82
2023/04/03 11:55:33;;;;;;;3.90;0.90;;;;;;;;;;5051738;28;20037;-82
2023/04/03 11:58:02;;;;;;;2.83;0.68;;;;;;;;;;5052286;28;20106;-83
2023/04/03 12:00:47;;;;;;;1.98;0.70;;;;;;;;;;5050478;28;20066;-82
2023/04/03 12:05:57;;;;;;;3.88;0.90;;;;;;;;;;5051364;28;20045;-82
2023/04/03 12:08:49;;;;;;;1.52;0.63;;;;;;;;;;5050734;28;20041;-83
2023/04/03 12:11:21;;;;;;;3.08;0.70;;;;;;;;;;5083414;28;20389;-82
2023/04/03 12:13:50;;;;;;;2.80;0.80;;;;;;;;;;5053360;28;20048;-82
2023/04/03 12:16:21;;;;;;;2.90;0.80;;;;;;;;;;5051189;28;20436;-82
2023/04/03 12:18:53;;;;;;;2.20;0.68;;;;;;;;;;5052678;28;20044;-83
2023/04/03 12:21:29;;;;;;;1.90;0.80;;;;;;;;;;5051664;28;20040;-82
2023/04/03 12:23:58;;;;;;;3.13;1.08;;;;;;;;;;5051198;28;20489;-83
2023/04/03 12:26:31;;;;;;;2.15;1.00;;;;;;;;;;5050514;28;20060;-82
2023/04/03 12:28:57;;;;;;;3.47;0.90;;;;;;;;;;5051754;28;20053;-82
2023/04/03 12:31:26;;;;;;;2.15;1.10;;;;;;;;;;5050297;28;20237;-82
2023/04/03 12:34:00;;;;;;;2.38;0.80;;;;;;;;;;5053131;28;20037;-82
2023/04/03 12:36:46;;;;;;;2.60;0.90;;;;;;;;;;5054064;28;20063;-82
2023/04/03 12:39:29;;;;;;;3.60;1.00;;;;;;;;;;5088219;28;20083;-82
2023/04/03 12:42:03;;;;;;;4.25;1.10;;;;;;;;;;5054198;28;20044;-82
2023/04/03 12:44:38;;;;;;;2.47;0.90;;;;;;;;;;5054199;28;20045;-82
2023/04/03 12:47:17;;;;;;;5.27;1.07;;;;;;;;;;5054989;28;20094;-82
2023/04/03 12:49:44;;;;;;;3.55;1.00;;;;;;;;;;5055259;28;20490;-83
2023/04/03 12:52:26;;;;;;;2.33;0.93;;;;;;;;;;5053621;28;20045;-82
2023/04/03 12:54:52;;;;;;;2.45;0.98;;;;;;;;;;5054132;28;20068;-82
2023/04/03 12:57:24;;;;;;;2.80;1.13;;;;;;;;;;5054790;28;20043;-82
2023/04/03 12:59:50;;;;;;;2.70;1.00;;;;;;;;;;5053705;28;20052;-82
2023/04/03 13:02:23;;;;;;;2.17;0.98;;;;;;;;;;5040709;28;20033;-82
2023/04/03 13:04:50;;;;;;;2.13;0.90;;;;;;;;;;5053689;28;20044;-82
2023/04/03 13:07:25;;;;;;;4.25;0.95;;;;;;;;;;5054497;28;20047;-82
2023/04/03 13:10:03;;;;;;;4.95;1.00;;;;;;;;;;5037200;28;20048;-82
2023/04/03 13:12:29;;;;;;;3.70;0.98;;;;;;;;;;5053534;28;20032;-82
2023/04/03 13:15:16;;;;;;;3.70;0.93;;;;;;;;;;5054988;28;20033;-82
2023/04/03 13:17:42;;;;;;;2.88;0.95;;;;;;;;;;5086354;28;20044;-82
2023/04/03 13:20:13;;;;;;;3.40;1.00;;;;;;;;;;5053458;28;20094;-83
2023/04/03 13:22:43;;;;;;;2.33;0.60;;;;;;;;;;5054114;28;20040;-83
2023/04/03 13:25:11;;;;;;;1.77;0.68;;;;;;;;;;5054513;28;20077;-82
2023/04/03 13:27:39;;;;;;;3.38;1.15;;;;;;;;;;5052546;28;20052;-82
2023/04/03 13:30:06;;;;;;;3.25;1.20;;;;;;;;;;5020508;28;20506;-82
2023/04/03 13:32:33;;;;;;;2.13;0.85;;;;;;;;;;5053246;28;20057;-82
2023/04/03 13:35:00;;;;;;;2.78;1.00;;;;;;;;;;5054441;28;20071;-82
2023/04/03 13:37:28;;;;;;;2.03;0.88;;;;;;;;;;5054024;28;20120;-83
2023/04/03 13:40:04;;;;;;;1.98;0.90;;;;;;;;;;5036265;28;20032;-83
2023/04/03 13:42:32;;;;;;;2.13;1.00;;;;;;;;;;5052428;28;20091;-81
2023/04/03 13:45:13;;;;;;;2.92;1.00;;;;;;;;;;5053560;28;20040;-82
2023/04/03 13:47:40;;;;;;;2.38;0.93;;;;;;;;;;5053403;28;20044;-82
2023/04/03 13:50:17;;;;;;;4.63;1.10;;;;;;;;;;5066431;28;20102;-82
2023/04/03 13:52:46;;;;;;;3.60;1.33;;;;;;;;;;5035575;28;20040;-82
2023/04/03 13:55:25;;;;;;;3.45;1.02;;;;;;;;;;5035873;28;20044;-82
2023/04/03 13:57:53;;;;;;;4.60;1.35;;;;;;;;;;5053524;28;20048;-82
2023/04/03 14:00:31;;;;;;;3.05;1.33;;;;;;;;;;5052990;28;20041;-83
2023/04/03 14:02:58;;;;;;;2.17;0.90;;;;;;;;;;5043457;28;20037;-82
2023/04/03 14:05:25;;;;;;;4.70;1.13;;;;;;;;;;5052315;28;20139;-82
2023/04/03 14:07:52;;;;;;;3.72;1.23;;;;;;;;;;5051817;28;20497;-82
2023/04/03 14:10:18;;;;;;;2.40;1.10;;;;;;;;;;5052148;28;20057;-82
2023/04/03 14:12:44;;;;;;;2.70;1.13;;;;;;;;;;5053108;28;20040;-82
2023/04/03 14:15:19;;;;;;;2.85;0.95;;;;;;;;;;5052344;28;20040;-83
2023/04/03 14:17:46;;;;;;;5.22;1.20;;;;;;;;;;5051603;28;20045;-82
2023/04/03 14:20:20;;;;;;;5.57;1.40;;;;;;;;;;5035615;28;20155;-82
2023/04/03 14:22:46;;;;;;;3.47;1.20;;;;;;;;;;5037818;28;20452;-82
2023/04/03 14:25:13;;;;;;;3.55;1.13;;;;;;;;;;5051910;28;20075;-82
2023/04/03 14:27:40;;;;;;;3.88;1.40;;;;;;;;;;5051269;28;20050;-82
2023/04/03 14:30:09;;;;;;;2.95;1.15;;;;;;;;;;5053149;28;20129;-82
2023/04/03 14:32:35;;;;;;;5.20;1.40;;;;;;;;;;5051557;28;20048;-82
2023/04/03 14:35:01;;;;;;;3.50;1.05;;;;;;;;;;5051614;28;20037;-82
2023/04/03 14:37:29;;;;;;;3.50;1.52;;;;;;;;;;5051916;28;20044;-82
2023/04/03 14:39:56;;;;;;;3.97;1.13;;;;;;;;;;5051335;28;20041;-82
2023/04/03 14:42:27;;;;;;;4.68;1.40;;;;;;;;;;5051554;28;20107;-82
2023/04/03 14:44:53;;;;;;;3.90;1.48;;;;;;;;;;5034705;28;20044;-82
2023/04/03 14:47:21;;;;;;;3.33;1.52;;;;;;;;;;5051304;28;20106;-82
2023/04/03 14:49:48;;;;;;;2.80;1.13;;;;;;;;;;5051172;28;20095;-82
2023/04/03 14:52:28;;;;;;;4.13;1.00;;;;;;;;;;5052726;28;20037;-82
2023/04/03 14:54:54;;;;;;;4.88;1.20;;;;;;;;;;5050585;28;20041;-82
2023/04/03 14:57:23;;;;;;;3.78;1.17;;;;;;;;;;5050818;28;20040;-82